Time;durP1;ratioP1;P1;durP2;ratioP2;P2;SDS_P1;SDS_P2;PMS_P1;PMS_P2;Temp;Humidity;BMP_temperature;BMP_pressure;BME280_temperature;BME280_humidity;BME280_pressure;Samples;Min_cycle;Max_cycle;Signal;HPM_P1;HPM_P2
2021/09/18 00:00:10;;;;;;;1.27;0.50;;;13.90;99.90;;;;;;4980201;28;20117;-67
2021/09/18 00:02:36;;;;;;;0.57;0.50;;;13.80;99.90;;;;;;4979651;28;20926;-68
2021/09/18 00:05:01;;;;;;;1.55;0.50;;;13.80;99.90;;;;;;4979594;28;20088;-68
2021/09/18 00:07:28;;;;;;;2.88;0.60;;;13.80;99.90;;;;;;4980144;28;20041;-68
2021/09/18 00:09:54;;;;;;;2.55;0.80;;;13.80;99.90;;;;;;4980335;28;20109;-68
2021/09/18 00:12:20;;;;;;;1.55;0.50;;;13.80;99.90;;;;;;4980686;28;20537;-68
2021/09/18 00:14:45;;;;;;;1.40;0.63;;;13.70;99.90;;;;;;4978861;28;20042;-68
2021/09/18 00:17:11;;;;;;;3.13;0.60;;;13.80;99.90;;;;;;4980208;28;20104;-68
2021/09/18 00:19:36;;;;;;;1.92;0.60;;;13.80;99.90;;;;;;4982654;28;20030;-68
2021/09/18 00:22:02;;;;;;;0.40;0.40;;;13.90;99.90;;;;;;4978423;28;20034;-68
2021/09/18 00:24:27;;;;;;;2.25;0.60;;;13.80;99.90;;;;;;4978761;28;20040;-67
2021/09/18 00:26:53;;;;;;;1.95;0.77;;;13.80;99.90;;;;;;4978200;28;20088;-68
2021/09/18 00:29:18;;;;;;;2.47;0.77;;;13.80;99.90;;;;;;4980223;28;20383;-68
2021/09/18 00:31:44;;;;;;;0.50;0.50;;;13.80;99.90;;;;;;4979003;28;20033;-68
2021/09/18 00:34:09;;;;;;;1.30;0.57;;;13.80;99.90;;;;;;4978687;28;20038;-67
2021/09/18 00:36:35;;;;;;;3.63;0.60;;;13.80;99.90;;;;;;4980075;28;20039;-68
2021/09/18 00:39:00;;;;;;;0.55;0.55;;;13.80;99.90;;;;;;4978175;28;20042;-68
2021/09/18 00:41:26;;;;;;;0.73;0.50;;;13.80;99.90;;;;;;4979989;28;20137;-67
2021/09/18 00:43:51;;;;;;;1.23;0.50;;;13.80;99.90;;;;;;4979969;28;20395;-68
2021/09/18 00:46:17;;;;;;;2.05;0.65;;;13.70;99.90;;;;;;4978215;28;20034;-68
2021/09/18 00:48:42;;;;;;;1.98;0.73;;;13.70;99.90;;;;;;4979397;28;20505;-68
2021/09/18 00:51:08;;;;;;;1.08;0.57;;;13.70;99.90;;;;;;4977727;28;20039;-68
2021/09/18 00:53:33;;;;;;;1.00;0.68;;;13.60;99.90;;;;;;4978015;28;20166;-67
2021/09/18 00:55:59;;;;;;;2.83;0.90;;;13.60;99.90;;;;;;4979280;28;20085;-67
2021/09/18 00:58:24;;;;;;;3.30;0.70;;;13.60;99.90;;;;;;4979262;28;20037;-67
2021/09/18 01:00:50;;;;;;;1.75;0.80;;;13.60;99.90;;;;;;4976505;28;20520;-67
2021/09/18 01:03:15;;;;;;;1.13;0.80;;;13.60;99.90;;;;;;4979994;28;20030;-68
2021/09/18 01:05:41;;;;;;;2.13;0.82;;;13.60;99.90;;;;;;4977884;28;20041;-67
2021/09/18 01:08:06;;;;;;;3.92;0.55;;;13.60;99.90;;;;;;4978221;28;20038;-68
2021/09/18 01:10:32;;;;;;;2.60;0.70;;;13.50;99.90;;;;;;4978801;28;20472;-67
2021/09/18 01:12:57;;;;;;;1.13;0.60;;;13.50;99.90;;;;;;4979245;28;20516;-67
2021/09/18 01:15:23;;;;;;;1.25;0.70;;;13.40;99.90;;;;;;4978262;28;20149;-67
2021/09/18 01:17:48;;;;;;;1.05;0.70;;;13.40;99.90;;;;;;4979243;28;20038;-68
2021/09/18 01:20:14;;;;;;;2.85;0.90;;;13.40;99.90;;;;;;4978678;28;20104;-67
2021/09/18 01:22:39;;;;;;;3.50;0.90;;;13.30;99.90;;;;;;4978647;28;20041;-67
2021/09/18 01:25:05;;;;;;;2.58;0.70;;;13.30;99.90;;;;;;4979094;28;20081;-67
2021/09/18 01:27:30;;;;;;;0.98;0.70;;;13.30;99.90;;;;;;4977882;28;20537;-67
2021/09/18 01:29:56;;;;;;;1.75;0.77;;;13.30;99.90;;;;;;4978861;28;20033;-67
2021/09/18 01:32:21;;;;;;;1.20;0.73;;;13.40;99.90;;;;;;4977106;28;20101;-68
2021/09/18 01:34:47;;;;;;;1.20;0.80;;;13.70;99.90;;;;;;4979000;28;20113;-67
2021/09/18 01:37:12;;;;;;;1.45;0.70;;;13.50;99.90;;;;;;4977765;28;20550;-67
2021/09/18 01:39:38;;;;;;;0.95;0.65;;;13.40;99.90;;;;;;4979035;28;20038;-67
2021/09/18 01:42:03;;;;;;;1.95;0.80;;;13.50;99.90;;;;;;4976335;28;20110;-67
2021/09/18 01:44:29;;;;;;;3.60;1.10;;;13.50;99.90;;;;;;4978146;28;20802;-68
2021/09/18 01:46:54;;;;;;;0.85;0.75;;;13.50;99.90;;;;;;4978363;28;20034;-67
2021/09/18 01:49:19;;;;;;;0.85;0.70;;;13.50;99.90;;;;;;4978227;28;20396;-67
2021/09/18 01:51:57;;;;;;;1.30;0.75;;;13.50;99.90;;;;;;4978141;28;20076;-68
2021/09/18 01:54:23;;;;;;;0.85;0.80;;;13.60;99.90;;;;;;4976121;28;20052;-67
2021/09/18 01:56:48;;;;;;;5.85;0.60;;;13.50;99.90;;;;;;4978154;28;20034;-67
2021/09/18 01:59:13;;;;;;;2.47;0.80;;;13.40;99.90;;;;;;4977869;28;20030;-67
2021/09/18 02:01:39;;;;;;;1.77;0.80;;;13.40;99.90;;;;;;4976458;28;20033;-67
2021/09/18 02:04:05;;;;;;;2.13;1.00;;;13.40;99.90;;;;;;4979548;28;20575;-68
2021/09/18 02:06:30;;;;;;;1.80;0.82;;;13.40;99.90;;;;;;4979042;28;20125;-68
2021/09/18 02:08:55;;;;;;;1.20;0.98;;;13.40;99.90;;;;;;4979776;28;20497;-68
2021/09/18 02:11:21;;;;;;;2.00;0.68;;;13.50;99.90;;;;;;4978261;28;20038;-68
2021/09/18 02:13:46;;;;;;;3.97;1.10;;;13.50;99.90;;;;;;4979324;28;20037;-68
2021/09/18 02:16:12;;;;;;;1.75;0.80;;;13.50;99.90;;;;;;4980378;28;20805;-68
2021/09/18 02:18:37;;;;;;;1.48;0.93;;;13.50;99.90;;;;;;4979416;28;20145;-68
2021/09/18 02:21:03;;;;;;;2.05;0.65;;;13.50;99.90;;;;;;4981545;28;20039;-68
2021/09/18 02:23:28;;;;;;;2.65;1.00;;;13.60;99.90;;;;;;4978690;28;20122;-68
2021/09/18 02:25:54;;;;;;;3.53;0.90;;;13.60;99.90;;;;;;4979938;28;20045;-68
2021/09/18 02:28:19;;;;;;;2.38;0.85;;;13.60;99.90;;;;;;4981884;28;20806;-68
2021/09/18 02:30:45;;;;;;;1.63;1.00;;;13.70;99.90;;;;;;4979867;28;20030;-68
2021/09/18 02:33:10;;;;;;;2.17;1.00;;;13.70;99.90;;;;;;4981162;28;21023;-67
2021/09/18 02:35:36;;;;;;;1.73;1.00;;;13.70;99.90;;;;;;4979083;28;20068;-67
2021/09/18 02:38:01;;;;;;;3.45;1.10;;;13.70;99.90;;;;;;4980489;28;20049;-68
2021/09/18 02:40:27;;;;;;;2.20;1.20;;;13.70;99.90;;;;;;4979500;28;20273;-67
2021/09/18 02:42:52;;;;;;;3.00;1.23;;;13.70;99.90;;;;;;4980583;28;20034;-67
2021/09/18 02:45:18;;;;;;;4.22;1.27;;;13.70;99.90;;;;;;4981005;28;20169;-67
2021/09/18 02:47:43;;;;;;;2.42;1.10;;;13.70;99.90;;;;;;4981190;28;20565;-67
2021/09/18 02:50:09;;;;;;;3.15;1.27;;;13.70;99.90;;;;;;4982248;28;20124;-67
2021/09/18 02:52:34;;;;;;;4.95;1.20;;;13.70;99.90;;;;;;4981883;28;20104;-67
2021/09/18 02:55:00;;;;;;;3.83;1.30;;;13.70;99.90;;;;;;4982122;28;20541;-67
2021/09/18 02:57:25;;;;;;;1.65;1.10;;;13.70;99.90;;;;;;4982934;28;20034;-67
2021/09/18 02:59:51;;;;;;;2.42;1.17;;;13.70;99.90;;;;;;4982188;28;20057;-67
2021/09/18 03:02:16;;;;;;;3.63;1.33;;;13.80;99.90;;;;;;4982843;28;20026;-67
2021/09/18 03:04:42;;;;;;;2.75;1.20;;;13.80;99.90;;;;;;4982820;28;20066;-67
2021/09/18 03:07:07;;;;;;;2.03;1.00;;;13.80;99.90;;;;;;4982003;28;20047;-67
2021/09/18 03:09:33;;;;;;;1.40;0.93;;;13.70;99.90;;;;;;4982445;28;20104;-67
2021/09/18 03:11:58;;;;;;;2.15;1.30;;;13.70;99.90;;;;;;4981800;28;20823;-67
2021/09/18 03:14:24;;;;;;;3.30;1.70;;;13.70;99.90;;;;;;4980323;28;20038;-67
2021/09/18 03:16:49;;;;;;;1.50;1.10;;;13.60;99.90;;;;;;4982339;28;20461;-67
2021/09/18 03:19:15;;;;;;;4.25;1.10;;;13.70;99.90;;;;;;4981675;28;20053;-68
2021/09/18 03:21:40;;;;;;;2.70;1.55;;;13.70;99.90;;;;;;4980988;28;20045;-68
2021/09/18 03:24:05;;;;;;;2.70;1.33;;;13.70;99.90;;;;;;4980842;28;20054;-67
2021/09/18 03:26:31;;;;;;;5.97;1.35;;;13.70;99.90;;;;;;4979702;28;20041;-68
2021/09/18 03:28:56;;;;;;;2.42;1.30;;;13.70;99.90;;;;;;4979034;28;20041;-67
2021/09/18 03:31:22;;;;;;;5.20;1.77;;;13.80;99.90;;;;;;4980552;28;20030;-67
2021/09/18 03:33:47;;;;;;;3.20;1.30;;;13.70;99.90;;;;;;4979895;28;20081;-68
2021/09/18 03:36:13;;;;;;;4.82;1.33;;;13.70;99.90;;;;;;4978703;28;20116;-67
2021/09/18 03:38:38;;;;;;;1.77;1.02;;;13.70;99.90;;;;;;4962325;28;20061;-67
2021/09/18 03:41:04;;;;;;;5.40;1.63;;;13.80;99.90;;;;;;4980509;28;20130;-67
2021/09/18 03:43:29;;;;;;;4.50;1.60;;;13.70;99.90;;;;;;4979011;28;20402;-67
2021/09/18 03:45:55;;;;;;;3.60;1.38;;;13.70;99.90;;;;;;4978865;28;20113;-67
2021/09/18 03:48:20;;;;;;;4.63;1.60;;;13.70;99.90;;;;;;4980772;28;20041;-67
2021/09/18 03:50:46;;;;;;;6.45;1.50;;;13.70;99.90;;;;;;4980297;28;20030;-67
2021/09/18 03:53:11;;;;;;;5.38;1.40;;;13.70;99.90;;;;;;4962263;28;20120;-67
2021/09/18 03:55:37;;;;;;;4.32;1.38;;;13.60;99.90;;;;;;4979047;28;20491;-67
2021/09/18 03:58:02;;;;;;;3.83;1.23;;;13.60;99.90;;;;;;4979897;28;20187;-67
2021/09/18 04:00:27;;;;;;;1.60;1.30;;;13.60;99.90;;;;;;4980358;28;20045;-67
2021/09/18 04:02:53;;;;;;;4.25;1.20;;;13.70;99.90;;;;;;4980224;28;20678;-67
2021/09/18 04:05:18;;;;;;;3.25;1.23;;;13.70;99.90;;;;;;4979749;28;20056;-67
2021/09/18 04:07:44;;;;;;;3.00;1.30;;;13.70;99.90;;;;;;4980160;28;20034;-67
2021/09/18 04:10:10;;;;;;;4.18;1.30;;;13.60;99.90;;;;;;4979428;28;20062;-67
2021/09/18 04:12:35;;;;;;;4.07;1.50;;;13.70;99.90;;;;;;4978099;28;20478;-67
2021/09/18 04:15:00;;;;;;;2.97;1.40;;;13.60;99.90;;;;;;4980052;28;20049;-67
2021/09/18 04:17:26;;;;;;;5.82;1.33;;;13.60;99.90;;;;;;4979154;28;20037;-67
2021/09/18 04:19:51;;;;;;;2.40;1.40;;;13.50;99.90;;;;;;4982808;28;20034;-67
2021/09/18 04:22:17;;;;;;;3.20;1.35;;;13.50;99.90;;;;;;4974343;28;20405;-67
2021/09/18 04:24:42;;;;;;;7.40;2.17;;;13.60;99.90;;;;;;4961689;28;20728;-67
2021/09/18 04:27:08;;;;;;;3.20;1.88;;;13.60;99.90;;;;;;4978890;28;20085;-67
2021/09/18 04:29:33;;;;;;;5.07;1.73;;;13.50;99.90;;;;;;4979842;28;20862;-67
2021/09/18 04:31:59;;;;;;;5.70;1.80;;;13.50;99.90;;;;;;4980092;28;20037;-67
2021/09/18 04:34:24;;;;;;;4.60;2.05;;;13.50;99.90;;;;;;4978651;28;20125;-67
2021/09/18 04:36:50;;;;;;;4.88;2.47;;;13.30;99.90;;;;;;4980318;28;20038;-67
2021/09/18 04:39:18;;;;;;;5.85;2.20;;;13.30;99.90;;;;;;4979544;28;20031;-67
2021/09/18 04:41:43;;;;;;;6.57;2.45;;;13.30;99.90;;;;;;4978038;28;20080;-67
2021/09/18 04:44:08;;;;;;;4.30;2.30;;;13.20;99.90;;;;;;4980089;28;20477;-67
2021/09/18 04:46:34;;;;;;;5.20;1.90;;;13.20;99.90;;;;;;4979761;28;20062;-67
2021/09/18 04:48:59;;;;;;;8.95;2.00;;;13.30;99.90;;;;;;4979862;28;20042;-67
2021/09/18 04:51:25;;;;;;;5.13;2.60;;;13.20;99.90;;;;;;4978050;28;20927;-67
2021/09/18 04:53:50;;;;;;;9.32;2.40;;;13.30;99.90;;;;;;4979043;28;20060;-67
2021/09/18 04:56:16;;;;;;;4.25;2.38;;;13.50;99.90;;;;;;4980289;28;20030;-67
2021/09/18 04:58:41;;;;;;;6.10;2.55;;;13.30;99.90;;;;;;4978769;28;20096;-67
2021/09/18 05:01:07;;;;;;;11.02;4.68;;;13.40;99.90;;;;;;4980239;28;20367;-66
2021/09/18 05:03:32;;;;;;;10.55;4.43;;;13.30;99.90;;;;;;4979815;28;20035;-67
2021/09/18 05:05:57;;;;;;;15.50;6.30;;;13.30;99.90;;;;;;4962119;28;20121;-67
2021/09/18 05:08:23;;;;;;;9.95;4.53;;;13.20;99.90;;;;;;4979806;28;20412;-67
2021/09/18 05:10:48;;;;;;;10.77;4.38;;;13.20;99.90;;;;;;4979363;28;20057;-66
2021/09/18 05:13:14;;;;;;;9.60;4.65;;;13.20;99.90;;;;;;4979601;28;20580;-66
2021/09/18 05:15:39;;;;;;;10.98;4.80;;;13.20;99.90;;;;;;4978179;28;20674;-66
2021/09/18 05:18:05;;;;;;;8.30;4.25;;;13.20;99.90;;;;;;4979740;28;20040;-66
2021/09/18 05:20:30;;;;;;;12.93;4.15;;;13.20;99.90;;;;;;4978073;28;20081;-66
2021/09/18 05:22:56;;;;;;;9.43;4.90;;;13.20;99.90;;;;;;4979445;28;20325;-66
2021/09/18 05:25:21;;;;;;;12.98;5.68;;;13.20;99.90;;;;;;4979563;28;20092;-66
2021/09/18 05:27:47;;;;;;;8.07;4.10;;;13.10;99.90;;;;;;4978487;28;20035;-66
2021/09/18 05:30:12;;;;;;;13.68;5.35;;;13.20;99.90;;;;;;4978565;28;20749;-66
2021/09/18 05:32:38;;;;;;;9.15;4.55;;;13.10;99.90;;;;;;4977143;28;20039;-66
2021/09/18 05:35:03;;;;;;;12.15;6.82;;;13.30;99.90;;;;;;4978314;28;20031;-66
2021/09/18 05:37:29;;;;;;;17.65;7.32;;;13.20;99.90;;;;;;4979545;28;20109;-66
2021/09/18 05:39:54;;;;;;;15.63;6.55;;;13.20;99.90;;;;;;4979450;28;20035;-66
2021/09/18 05:42:20;;;;;;;8.60;5.18;;;13.20;99.90;;;;;;4979203;28;20112;-67
2021/09/18 05:44:45;;;;;;;8.85;5.07;;;13.20;99.90;;;;;;4979419;28;20514;-67
2021/09/18 05:47:11;;;;;;;10.10;5.15;;;13.20;99.90;;;;;;4978001;28;20116;-67
2021/09/18 05:49:36;;;;;;;9.45;4.68;;;13.20;99.90;;;;;;4979404;28;20543;-66
2021/09/18 05:52:01;;;;;;;9.35;5.32;;;13.20;99.90;;;;;;4979073;28;20813;-66
2021/09/18 05:54:27;;;;;;;8.45;4.80;;;13.20;99.90;;;;;;4978929;28;20034;-66
2021/09/18 05:56:53;;;;;;;8.52;5.05;;;13.20;99.90;;;;;;4978295;28;20745;-67
2021/09/18 05:59:18;;;;;;;13.25;6.82;;;13.30;99.90;;;;;;4979194;28;20044;-66
2021/09/18 06:01:43;;;;;;;33.03;20.63;;;13.30;99.90;;;;;;4981511;28;20036;-66
2021/09/18 06:04:09;;;;;;;13.63;8.35;;;13.30;99.90;;;;;;4982322;28;20034;-66
2021/09/18 06:06:34;;;;;;;11.48;5.95;;;13.30;99.90;;;;;;4983659;28;20165;-67
2021/09/18 06:09:00;;;;;;;12.40;5.40;;;13.40;99.90;;;;;;4981189;28;20484;-67
2021/09/18 06:11:25;;;;;;;12.93;7.40;;;13.40;99.90;;;;;;4982851;28;20031;-67
2021/09/18 06:13:52;;;;;;;17.65;9.30;;;13.40;99.90;;;;;;4987328;28;20049;-66
2021/09/18 06:16:17;;;;;;;8.57;4.63;;;13.40;99.90;;;;;;4983710;28;20603;-66
2021/09/18 06:18:43;;;;;;;8.52;6.00;;;13.30;99.90;;;;;;4982163;28;20034;-66
2021/09/18 06:21:08;;;;;;;31.15;22.30;;;13.40;99.90;;;;;;4982360;28;20494;-66
2021/09/18 06:23:37;;;;;;;128.68;87.95;;;13.50;99.90;;;;;;4982576;28;20069;-67
2021/09/18 06:26:02;;;;;;;25.75;17.58;;;13.40;99.90;;;;;;4981792;28;20038;-66
2021/09/18 06:28:27;;;;;;;25.45;17.60;;;13.40;99.90;;;;;;4983813;28;20576;-67
2021/09/18 06:30:53;;;;;;;11.05;6.07;;;13.40;99.90;;;;;;4984150;28;20030;-66
2021/09/18 06:33:19;;;;;;;8.35;4.50;;;13.40;99.90;;;;;;4983351;28;20066;-66
2021/09/18 06:35:44;;;;;;;6.97;4.10;;;13.40;99.90;;;;;;4983602;28;20403;-66
2021/09/18 06:38:11;;;;;;;5.03;4.05;;;13.50;99.90;;;;;;4983139;28;20034;-66
2021/09/18 06:40:36;;;;;;;4.93;3.50;;;13.50;99.90;;;;;;4982504;28;20061;-67
2021/09/18 06:43:02;;;;;;;6.78;3.92;;;13.50;99.90;;;;;;4982916;28;20530;-66
2021/09/18 06:45:27;;;;;;;6.10;3.75;;;13.60;99.90;;;;;;4980991;28;20184;-66
2021/09/18 06:47:53;;;;;;;6.10;4.30;;;13.60;99.90;;;;;;4981603;28;20503;-66
2021/09/18 06:50:18;;;;;;;7.53;4.07;;;13.70;99.90;;;;;;4981756;28;20034;-67
2021/09/18 06:52:44;;;;;;;4.60;3.75;;;13.70;99.90;;;;;;4982046;28;20088;-67
2021/09/18 06:55:09;;;;;;;6.05;3.85;;;13.70;99.90;;;;;;4985576;28;20038;-66
2021/09/18 06:57:38;;;;;;;6.15;3.80;;;13.70;99.90;;;;;;4980141;28;20506;-66
2021/09/18 07:00:03;;;;;;;5.20;3.60;;;13.80;99.90;;;;;;4980615;28;20030;-66
2021/09/18 07:02:29;;;;;;;5.50;4.07;;;13.80;99.90;;;;;;4979751;28;20696;-66
2021/09/18 07:04:54;;;;;;;13.18;7.03;;;13.80;99.90;;;;;;4980534;28;20501;-66
2021/09/18 07:07:20;;;;;;;5.60;4.28;;;13.90;99.90;;;;;;4980357;28;20134;-66
2021/09/18 07:09:45;;;;;;;9.23;3.85;;;14.00;99.90;;;;;;4981304;28;20042;-66
2021/09/18 07:12:11;;;;;;;4.65;3.67;;;14.20;99.90;;;;;;4981183;28;20755;-66
2021/09/18 07:14:37;;;;;;;7.88;4.78;;;14.30;99.90;;;;;;4980263;28;20736;-66
2021/09/18 07:17:02;;;;;;;8.02;4.20;;;14.30;99.90;;;;;;4980906;28;20044;-66
2021/09/18 07:19:27;;;;;;;6.03;4.13;;;14.30;99.90;;;;;;4980393;28;20119;-66
2021/09/18 07:21:53;;;;;;;7.13;4.53;;;14.60;99.90;;;;;;4982109;28;20046;-66
2021/09/18 07:24:18;;;;;;;7.40;3.97;;;14.50;99.90;;;;;;4982517;28;20109;-66
2021/09/18 07:26:44;;;;;;;6.03;4.35;;;14.70;99.90;;;;;;4981576;28;20518;-66
2021/09/18 07:29:09;;;;;;;5.22;3.50;;;14.80;99.90;;;;;;4981702;28;20088;-66
2021/09/18 07:31:35;;;;;;;4.28;3.22;;;14.90;99.90;;;;;;4981764;28;20030;-66
2021/09/18 07:34:00;;;;;;;5.63;3.35;;;15.00;99.90;;;;;;4981324;28;20886;-66
2021/09/18 07:36:26;;;;;;;5.55;4.18;;;15.10;99.90;;;;;;4981489;28;20113;-66
2021/09/18 07:38:51;;;;;;;4.82;3.47;;;15.20;99.90;;;;;;4980682;28;20027;-66
2021/09/18 07:41:17;;;;;;;5.80;3.83;;;15.20;99.90;;;;;;4980988;28;20554;-66
2021/09/18 07:43:42;;;;;;;5.20;3.67;;;15.20;99.90;;;;;;4978312;28;20030;-66
2021/09/18 07:46:08;;;;;;;4.88;3.17;;;15.20;99.90;;;;;;4979570;28;20113;-66
2021/09/18 07:48:33;;;;;;;4.32;3.33;;;15.30;99.90;;;;;;4980544;28;20042;-66
2021/09/18 07:50:58;;;;;;;3.80;3.20;;;15.20;99.90;;;;;;4980488;28;20042;-66
2021/09/18 07:53:24;;;;;;;4.70;3.42;;;15.20;99.90;;;;;;4981437;28;20034;-66
2021/09/18 07:55:50;;;;;;;4.35;3.38;;;15.30;99.90;;;;;;4979977;28;20536;-66
2021/09/18 07:58:15;;;;;;;4.78;3.08;;;15.50;99.90;;;;;;4981096;28;20034;-67
2021/09/18 08:00:41;;;;;;;4.70;3.28;;;15.70;99.90;;;;;;4981444;28;20042;-66
2021/09/18 08:03:06;;;;;;;4.80;3.70;;;15.80;99.90;;;;;;4980295;28;20455;-66
2021/09/18 08:05:32;;;;;;;6.05;4.00;;;15.80;99.90;;;;;;4980688;28;20133;-66
2021/09/18 08:07:57;;;;;;;5.25;3.53;;;15.90;99.90;;;;;;4981740;28;20069;-66
2021/09/18 08:10:23;;;;;;;4.50;3.45;;;15.80;99.90;;;;;;4979611;28;20394;-67
2021/09/18 08:12:48;;;;;;;5.57;3.60;;;15.80;99.90;;;;;;4978670;28;20509;-66
2021/09/18 08:15:14;;;;;;;4.95;3.20;;;15.80;99.90;;;;;;4978723;28;20096;-66
2021/09/18 08:17:39;;;;;;;3.92;3.13;;;15.90;99.90;;;;;;4980384;28;20042;-66
2021/09/18 08:20:05;;;;;;;4.60;3.30;;;16.00;99.90;;;;;;4980241;28;20061;-66
2021/09/18 08:22:30;;;;;;;5.68;3.35;;;15.90;99.90;;;;;;4980644;28;20030;-66
2021/09/18 08:24:57;;;;;;;17.17;9.05;;;16.00;99.90;;;;;;4980339;28;20041;-66
2021/09/18 08:27:22;;;;;;;7.57;4.15;;;16.00;99.90;;;;;;4979694;28;20089;-66
2021/09/18 08:29:48;;;;;;;3.75;3.35;;;16.10;99.90;;;;;;4980683;28;20042;-66
2021/09/18 08:32:13;;;;;;;4.60;3.25;;;16.20;99.90;;;;;;4977697;28;20061;-66
2021/09/18 08:34:38;;;;;;;5.47;3.17;;;16.30;99.90;;;;;;4980543;28;20034;-66
2021/09/18 08:37:04;;;;;;;4.90;3.20;;;16.50;99.90;;;;;;4980302;28;20150;-66
2021/09/18 08:39:30;;;;;;;4.88;2.95;;;16.50;99.90;;;;;;4979387;28;20380;-66
2021/09/18 08:41:56;;;;;;;6.47;3.50;;;16.60;99.90;;;;;;4979966;28;20034;-66
2021/09/18 08:44:21;;;;;;;5.25;2.28;;;16.60;99.90;;;;;;4978794;28;20627;-66
2021/09/18 08:46:47;;;;;;;5.15;3.05;;;16.80;99.90;;;;;;4979319;28;20044;-66
2021/09/18 08:49:12;;;;;;;4.90;2.40;;;17.00;99.90;;;;;;4978969;28;20184;-66
2021/09/18 08:51:40;;;;;;;3.28;2.42;;;17.10;99.90;;;;;;4979679;28;20066;-66
2021/09/18 08:54:05;;;;;;;4.07;2.47;;;17.00;99.90;;;;;;4979872;28;20030;-66
2021/09/18 08:56:31;;;;;;;2.90;2.50;;;17.10;99.90;;;;;;4980384;28;20040;-66
2021/09/18 08:58:57;;;;;;;3.80;1.90;;;17.10;99.90;;;;;;4977989;28;20030;-66
2021/09/18 09:01:23;;;;;;;2.80;1.50;;;17.20;99.90;;;;;;4979512;28;20125;-66
2021/09/18 09:03:48;;;;;;;2.80;1.25;;;17.30;99.90;;;;;;4979318;28;20035;-66
2021/09/18 09:06:14;;;;;;;4.32;1.20;;;17.50;99.90;;;;;;4979255;28;20042;-66
2021/09/18 09:08:40;;;;;;;1.70;0.93;;;17.60;99.90;;;;;;4978980;28;20184;-66
2021/09/18 09:11:06;;;;;;;1.83;0.95;;;17.60;99.90;;;;;;4979237;28;20061;-66
2021/09/18 09:13:31;;;;;;;1.88;1.05;;;17.90;99.90;;;;;;4978634;28;20624;-67
2021/09/18 09:15:57;;;;;;;1.98;0.90;;;18.20;99.90;;;;;;4978693;28;20031;-67
2021/09/18 09:18:22;;;;;;;6.22;0.80;;;18.20;99.90;;;;;;4978816;28;20524;-67
2021/09/18 09:20:48;;;;;;;2.25;0.60;;;18.30;99.90;;;;;;4979019;28;20042;-67
2021/09/18 09:23:13;;;;;;;0.75;0.60;;;18.40;99.90;;;;;;4978333;28;20040;-67
2021/09/18 09:25:39;;;;;;;0.63;0.50;;;18.60;99.90;;;;;;4979425;28;20564;-67
2021/09/18 09:28:04;;;;;;;2.53;1.10;;;18.60;99.90;;;;;;4976730;28;20731;-67
2021/09/18 09:30:30;;;;;;;3.45;1.15;;;18.70;99.90;;;;;;4978327;28;20030;-67
2021/09/18 09:32:55;;;;;;;1.15;0.50;;;19.00;99.90;;;;;;4978544;28;20073;-67
2021/09/18 09:35:21;;;;;;;2.67;0.50;;;19.10;99.90;;;;;;4985112;28;20152;-67
2021/09/18 09:37:46;;;;;;;1.33;0.50;;;19.20;99.90;;;;;;4981908;28;20026;-67
2021/09/18 09:40:12;;;;;;;1.95;1.25;;;19.20;99.90;;;;;;4982505;28;20050;-67
2021/09/18 09:42:37;;;;;;;4.00;2.10;;;19.00;99.90;;;;;;4985024;28;20109;-67
2021/09/18 09:45:02;;;;;;;2.75;0.65;;;19.20;99.90;;;;;;4983092;28;20030;-67
2021/09/18 09:47:28;;;;;;;4.82;2.40;;;19.20;99.90;;;;;;4981517;28;20121;-67
2021/09/18 09:49:54;;;;;;;1.45;0.80;;;19.00;99.90;;;;;;4982910;28;20508;-67
2021/09/18 09:52:19;;;;;;;1.00;0.88;;;19.10;99.90;;;;;;4982739;28;20038;-67
2021/09/18 09:54:44;;;;;;;2.90;0.95;;;19.00;99.90;;;;;;4981573;28;20796;-67
2021/09/18 09:57:10;;;;;;;2.50;0.82;;;19.00;99.90;;;;;;4982139;28;20104;-67
2021/09/18 09:59:35;;;;;;;5.10;1.10;;;18.90;99.90;;;;;;4982027;28;20550;-67
2021/09/18 10:02:01;;;;;;;6.13;1.23;;;18.90;99.90;;;;;;4980769;28;20034;-68
2021/09/18 10:04:26;;;;;;;2.13;0.75;;;19.30;99.90;;;;;;4981245;28;20034;-67
2021/09/18 10:06:52;;;;;;;1.02;0.80;;;18.80;99.90;;;;;;4981265;28;20042;-66
2021/09/18 10:09:17;;;;;;;2.85;1.20;;;18.30;99.90;;;;;;4980516;28;20791;-66
2021/09/18 10:11:43;;;;;;;1.85;1.25;;;17.90;99.90;;;;;;4981701;28;20775;-65
2021/09/18 10:14:09;;;;;;;4.00;1.55;;;17.40;99.90;;;;;;4981843;28;20049;-65
2021/09/18 10:16:34;;;;;;;9.13;2.78;;;17.20;99.90;;;;;;4984307;28;20034;-66
2021/09/18 10:19:03;;;;;;;1.75;0.88;;;17.20;99.90;;;;;;4980419;28;20034;-66
2021/09/18 10:24:13;;;;;;;1.25;0.93;;;17.50;99.90;;;;;;4980601;28;20027;-66
2021/09/18 10:26:38;;;;;;;2.63;0.82;;;17.60;99.90;;;;;;4988072;28;20537;-66
2021/09/18 10:29:04;;;;;;;0.52;0.50;;;17.70;99.90;;;;;;4979883;28;20035;-66
2021/09/18 10:31:29;;;;;;;2.92;1.05;;;17.60;99.90;;;;;;4978757;28;20447;-67
2021/09/18 10:33:54;;;;;;;3.92;1.42;;;17.80;99.90;;;;;;4980753;28;20044;-67
2021/09/18 10:36:20;;;;;;;1.05;0.93;;;18.10;99.90;;;;;;4981938;28;20073;-67
2021/09/18 10:38:45;;;;;;;2.17;1.02;;;18.10;99.90;;;;;;4979556;28;20073;-67
2021/09/18 10:41:11;;;;;;;2.38;0.60;;;17.90;99.90;;;;;;4980834;28;20041;-67
2021/09/18 10:43:37;;;;;;;3.03;0.30;;;17.80;99.90;;;;;;4980638;28;20073;-67
2021/09/18 10:46:02;;;;;;;2.08;0.50;;;18.10;99.90;;;;;;4979429;28;20781;-67
2021/09/18 10:48:28;;;;;;;0.75;0.20;;;18.50;99.90;;;;;;4980592;28;20170;-67
2021/09/18 10:50:53;;;;;;;1.60;0.30;;;18.90;99.90;;;;;;4979853;28;20671;-67
2021/09/18 10:53:19;;;;;;;1.08;0.28;;;19.20;99.90;;;;;;4980834;28;20574;-66
2021/09/18 10:55:44;;;;;;;0.43;0.32;;;19.60;99.90;;;;;;4981299;28;20039;-66
2021/09/18 10:58:10;;;;;;;0.30;0.20;;;19.90;99.90;;;;;;4981250;28;20037;-67
2021/09/18 11:00:35;;;;;;;1.88;0.30;;;19.90;99.90;;;;;;4981111;28;20506;-67
2021/09/18 11:03:01;;;;;;;1.95;0.25;;;19.80;99.90;;;;;;4981917;28;20030;-67
2021/09/18 11:05:27;;;;;;;0.17;0.17;;;19.70;99.90;;;;;;4982181;28;20084;-66
2021/09/18 11:07:52;;;;;;;2.83;1.20;;;19.90;99.90;;;;;;4980180;28;20034;-67
2021/09/18 11:10:18;;;;;;;3.63;1.08;;;19.60;99.90;;;;;;4980435;28;20948;-67
2021/09/18 11:12:43;;;;;;;0.80;0.25;;;19.10;99.90;;;;;;4979712;28;20129;-68
2021/09/18 11:15:09;;;;;;;2.53;1.33;;;18.40;99.90;;;;;;4979357;28;20046;-68
2021/09/18 11:17:34;;;;;;;0.95;0.40;;;18.10;99.90;;;;;;4979728;28;20040;-68
2021/09/18 11:20:00;;;;;;;4.03;2.22;;;18.20;99.90;;;;;;4979362;28;20062;-67
2021/09/18 11:22:25;;;;;;;0.57;0.40;;;18.20;99.90;;;;;;4979329;28;20085;-68
2021/09/18 11:24:51;;;;;;;0.45;0.32;;;18.10;99.90;;;;;;4979578;28;20042;-67
2021/09/18 11:27:16;;;;;;;0.32;0.20;;;18.40;99.90;;;;;;4979283;28;20811;-67
2021/09/18 11:29:44;;;;;;;0.43;0.28;;;18.60;99.90;;;;;;4978709;28;20189;-67
2021/09/18 11:32:12;;;;;;;2.42;0.40;;;19.00;99.90;;;;;;4979001;28;20030;-67
2021/09/18 11:34:38;;;;;;;3.63;0.65;;;19.20;99.90;;;;;;4977407;28;20132;-67
2021/09/18 11:37:03;;;;;;;0.50;0.20;;;19.60;99.90;;;;;;4978846;28;20802;-67
2021/09/18 11:39:29;;;;;;;0.63;0.40;;;19.90;99.90;;;;;;4980802;28;20092;-67
2021/09/18 11:41:54;;;;;;;0.20;0.20;;;19.80;99.90;;;;;;4981325;28;20125;-67
2021/09/18 11:44:20;;;;;;;1.00;0.30;;;19.40;99.90;;;;;;4980302;28;20030;-67
2021/09/18 11:46:45;;;;;;;2.72;0.40;;;19.20;99.90;;;;;;4982163;28;20038;-67
2021/09/18 11:49:11;;;;;;;3.35;0.63;;;18.70;99.90;;;;;;4979975;28;20034;-67
2021/09/18 11:51:36;;;;;;;0.90;0.32;;;18.30;99.90;;;;;;4979647;28;20394;-67
2021/09/18 11:54:02;;;;;;;0.82;0.43;;;18.00;99.90;;;;;;4980033;28;20071;-67
2021/09/18 11:56:27;;;;;;;0.70;0.40;;;18.00;99.90;;;;;;4980306;28;20325;-66
2021/09/18 11:58:53;;;;;;;2.08;0.65;;;18.00;99.90;;;;;;4979332;28;20038;-66
2021/09/18 12:01:18;;;;;;;2.90;0.60;;;18.20;99.90;;;;;;4979001;28;20092;-66
2021/09/18 12:03:44;;;;;;;1.63;0.60;;;18.20;99.90;;;;;;4980020;28;20026;-67
2021/09/18 12:06:10;;;;;;;2.13;0.47;;;18.60;99.90;;;;;;4980621;28;20041;-68
2021/09/18 12:08:35;;;;;;;1.27;0.98;;;18.90;99.90;;;;;;4977661;28;20042;-68
2021/09/18 12:11:01;;;;;;;1.67;1.08;;;19.00;99.90;;;;;;4980288;28;20065;-67
2021/09/18 12:13:26;;;;;;;2.45;0.80;;;19.10;99.90;;;;;;4980339;28;20034;-67
2021/09/18 12:15:52;;;;;;;2.45;0.93;;;19.30;99.90;;;;;;4978567;28;20061;-67
2021/09/18 12:18:17;;;;;;;0.82;0.47;;;19.40;99.90;;;;;;4979372;28;20034;-67
2021/09/18 12:20:43;;;;;;;0.80;0.40;;;19.40;99.90;;;;;;4981070;28;20057;-67
2021/09/18 12:23:08;;;;;;;1.00;0.52;;;19.40;99.90;;;;;;4978920;28;20034;-67
2021/09/18 12:25:34;;;;;;;1.90;0.60;;;20.60;99.90;;;;;;4980184;28;20038;-67
2021/09/18 12:27:59;;;;;;;1.80;0.95;;;19.50;99.90;;;;;;4978487;28;20034;-67
2021/09/18 12:30:27;;;;;;;3.47;0.60;;;19.40;99.90;;;;;;4979799;28;20082;-67
2021/09/18 12:32:52;;;;;;;1.88;0.75;;;19.60;99.90;;;;;;4979924;28;20378;-67
2021/09/18 12:35:17;;;;;;;5.82;0.60;;;19.70;99.90;;;;;;4979299;28;20046;-67
2021/09/18 12:37:43;;;;;;;2.05;0.80;;;19.50;99.90;;;;;;4979382;28;20042;-67